Terminal Aerodrome Forecast
Issued by NWS

Home | Current Version | Previous Version | Text Only | Print | Product List | Glossary On
Versions: 1 2 3 4 5 6 7 8 9 10 11 12 13 14 15 16 17 18 19 20 21 22 23 24 25 26 27 28 29 30 31
000
FTUS41 KBTV 261124
TAFPBG
TAF
KPBG 261124Z 2612/2712 00000KT P6SM SCT040 OVC150
     FM262000 04004KT 1 1/2SM -SN BR OVC030
     FM270000 36008KT 1/2SM SN FG OVC015
     FM270400 35008KT 1 1/2SM -SN BR OVC010
     FM271000 34006KT P6SM OVC015=

USA.gov is the U.S. government's official web portal to all federal, state and local government web resources and services.